CST,Max TemperatureF,Mean TemperatureF,Min TemperatureF,Max Dew PointF,MeanDew PointF,Min DewpointF,Max Humidity, Mean Humidity, Min Humidity, Max Sea Level PressureIn, Mean Sea Level PressureIn, Min Sea Level PressureIn, Max VisibilityMiles, Mean VisibilityMiles, Min VisibilityMiles, Max Wind SpeedMPH, Mean Wind SpeedMPH, Max Gust SpeedMPH,PrecipitationIn, CloudCover, Events, WindDirDegrees
2012-12-1,70,63,56,63,60,57,100,84,62,30.02,29.90,29.81,10,10,7,26,13,36,0.00,6,,202
2012-12-2,70,57,44,64,57,49,100,82,57,30.04,29.96,29.91,10,9,5,15,4,20,0.00,1,,194
2012-12-3,71,64,58,64,57,46,100,71,57,30.00,29.87,29.80,10,10,3,30,17,46,0.55,5,Thunderstorm,212
2012-12-4,60,48,35,46,35,28,99,58,28,30.33,30.21,30.01,10,10,10,15,8,18,0.00,1,,22
2012-12-5,60,46,32,40,33,28,100,64,30,30.34,30.22,30.04,10,10,5,13,3,16,0.00,0,,152
2012-12-6,61,50,40,49,41,32,94,71,53,30.04,29.91,29.82,10,10,10,13,6,18,0.00,1,,161
2012-12-7,56,53,50,52,50,48,100,92,76,29.90,29.86,29.81,10,8,3,9,2,,0.00,7,,49
2012-12-8,50,46,43,48,45,42,100,91,71,29.96,29.90,29.84,10,5,2,10,6,,0.00,7,,61
2012-12-9,48,38,28,47,30,16,100,69,54,30.08,29.91,29.79,10,7,2,18,7,26,0.00,5,,3
2012-12-10,32,26,21,20,17,14,85,67,53,30.11,30.06,30.03,10,10,10,16,9,24,0.00,2,,311
2012-12-11,43,32,21,26,19,15,90,65,36,30.18,30.10,30.05,10,10,10,9,6,,0.00,0,,223
2012-12-12,50,40,30,22,17,12,68,45,23,30.27,30.20,30.16,10,10,10,18,9,25,0.00,0,,196
2012-12-13,58,48,37,28,21,16,54,40,28,30.21,30.15,30.09,10,10,10,23,12,36,0.00,0,,198
2012-12-14,55,46,37,48,30,23,100,55,32,30.13,29.99,29.73,10,10,5,21,8,26,0.00,5,Thunderstorm,182
2012-12-15,60,52,44,51,44,37,100,72,49,29.73,29.67,29.58,10,10,10,31,16,38,0.00,1,,220
2012-12-16,58,45,32,43,39,36,100,73,50,29.76,29.70,29.61,10,7,1,13,3,,0.00,2,,17
2012-12-17,46,41,36,39,36,35,100,84,70,29.81,29.76,29.73,10,4,0,12,6,,0.00,5,,280
2012-12-18,58,46,34,39,35,33,100,73,39,29.85,29.76,29.68,10,10,5,14,7,21,0.00,0,,223
2012-12-19,63,48,34,61,43,32,100,78,65,29.84,29.64,29.38,10,10,7,16,8,23,0.00,3,,117
2012-12-20,58,44,30,54,27,18,100,75,57,30.28,29.95,29.35,10,9,1,28,14,41,0.00,3,,300
2012-12-21,45,32,20,22,19,14,98,57,29,30.36,30.29,30.22,10,10,10,6,3,,0.00,0,,141
2012-12-22,60,46,31,26,21,18,61,39,20,30.22,30.06,29.95,10,10,10,20,9,28,0.00,0,,204
2012-12-23,52,41,30,36,30,24,99,65,43,29.94,29.89,29.83,10,10,7,9,4,,0.00,0,,359
2012-12-24,32,26,21,27,22,16,100,83,66,30.08,30.01,29.91,10,6,4,16,7,24,0.00,0,,16
2012-12-25,29,24,20,23,18,11,82,76,63,30.14,30.08,30.04,10,9,7,24,15,32,0.00,5,,41
2012-12-26,32,24,15,20,15,9,86,69,56,30.22,30.16,30.12,10,10,10,15,9,23,0.00,4,,10
2012-12-27,40,31,22,26,22,19,86,69,49,30.12,30.00,29.90,10,10,10,13,6,18,0.00,1,,154
2012-12-28,35,29,23,32,26,16,100,80,62,30.09,29.98,29.94,10,9,4,15,5,20,0.00,6,,308
2012-12-29,37,29,21,18,16,14,78,64,41,30.36,30.26,30.09,10,10,7,14,8,18,0.00,3,,285
2012-12-30,44,34,23,26,19,16,77,57,32,30.37,30.29,30.18,10,10,10,22,9,28,0.00,0,,201
2012-12-31,36,34,32,36,32,21,100,89,55,30.20,30.08,29.99,10,4,1,10,6,,0.00,7,,123